Time;durP1;ratioP1;P1;durP2;ratioP2;P2;SDS_P1;SDS_P2;PMS_P1;PMS_P2;Temp;Humidity;BMP_temperature;BMP_pressure;BME280_temperature;BME280_humidity;BME280_pressure;Samples;Min_cycle;Max_cycle;Signal;HPM_P1;HPM_P2
2021/07/30 00:01:48;;;;;;;6.20;5.60;;;23.70;98.40;;;;;;6225209;28;20244;-62
2021/07/30 00:04:51;;;;;;;6.47;5.97;;;23.60;98.50;;;;;;6224604;28;20319;-61
2021/07/30 00:07:56;;;;;;;7.10;6.40;;;23.60;98.40;;;;;;6224850;28;20232;-61
2021/07/30 00:11:00;;;;;;;8.13;7.50;;;23.60;98.40;;;;;;6224050;28;20243;-61
2021/07/30 00:14:03;;;;;;;6.60;6.00;;;23.60;98.60;;;;;;6223772;28;20243;-61
2021/07/30 00:17:06;;;;;;;6.27;5.77;;;23.50;98.70;;;;;;6224254;28;20232;-61
2021/07/30 00:20:10;;;;;;;7.97;6.60;;;23.50;98.80;;;;;;6224438;28;20233;-62
2021/07/30 00:23:14;;;;;;;7.87;7.17;;;23.50;98.80;;;;;;6229117;28;20233;-61
2021/07/30 00:26:17;;;;;;;8.30;7.60;;;23.50;98.90;;;;;;6229121;28;20241;-62
2021/07/30 00:29:20;;;;;;;7.27;6.67;;;23.50;99.20;;;;;;6228528;28;20708;-61
2021/07/30 00:32:23;;;;;;;6.50;5.90;;;23.50;99.20;;;;;;6229276;28;20707;-62
2021/07/30 00:35:27;;;;;;;6.77;6.27;;;23.50;99.30;;;;;;6228873;28;20590;-61
2021/07/30 00:38:31;;;;;;;6.77;6.17;;;23.40;99.40;;;;;;6229231;28;20233;-61
2021/07/30 00:41:39;;;;;;;6.27;5.77;;;23.40;99.50;;;;;;6228862;28;20577;-62
2021/07/30 00:44:42;;;;;;;7.00;6.40;;;23.30;99.50;;;;;;6215550;28;20241;-61
2021/07/30 00:47:46;;;;;;;8.77;6.33;;;23.30;99.70;;;;;;6228788;28;20240;-61
2021/07/30 00:50:49;;;;;;;7.00;6.30;;;23.20;99.70;;;;;;6228099;28;20686;-61
2021/07/30 00:53:54;;;;;;;6.87;6.27;;;23.20;99.90;;;;;;6228764;28;20224;-61
2021/07/30 00:56:57;;;;;;;6.43;5.83;;;23.10;99.90;;;;;;6227935;28;20678;-60
2021/07/30 01:00:00;;;;;;;7.57;6.90;;;23.00;99.90;;;;;;6228082;28;20269;-60
2021/07/30 01:03:04;;;;;;;7.70;6.70;;;23.00;99.90;;;;;;6228006;28;20243;-60
2021/07/30 01:06:08;;;;;;;7.23;5.50;;;22.90;99.90;;;;;;6228152;28;20233;-60
2021/07/30 01:09:13;;;;;;;7.60;6.10;;;22.90;99.90;;;;;;6227706;28;20225;-61
2021/07/30 01:12:17;;;;;;;6.67;6.07;;;23.00;99.90;;;;;;6227226;28;20224;-61
2021/07/30 01:15:20;;;;;;;7.73;7.13;;;23.00;99.90;;;;;;6227508;28;20627;-61
2021/07/30 01:18:23;;;;;;;8.43;7.40;;;22.90;99.90;;;;;;6228642;28;20208;-62
2021/07/30 01:21:31;;;;;;;8.00;7.30;;;22.90;99.90;;;;;;6227823;28;20669;-61
2021/07/30 01:24:35;;;;;;;7.83;7.13;;;22.90;99.90;;;;;;6227989;28;20647;-62
2021/07/30 01:27:38;;;;;;;7.17;6.07;;;22.90;99.90;;;;;;6227850;28;20241;-62
2021/07/30 01:30:41;;;;;;;7.23;6.20;;;22.80;99.90;;;;;;6227453;28;20302;-63
2021/07/30 01:33:45;;;;;;;6.57;5.87;;;22.80;99.90;;;;;;6227622;28;20244;-63
2021/07/30 01:36:48;;;;;;;7.13;6.50;;;22.80;99.90;;;;;;6227388;28;20239;-63
2021/07/30 01:39:53;;;;;;;9.20;6.70;;;22.80;99.90;;;;;;6227366;28;20233;-63
2021/07/30 01:42:56;;;;;;;7.27;6.67;;;22.70;99.90;;;;;;6227165;28;20263;-63
2021/07/30 01:45:59;;;;;;;8.00;7.07;;;22.60;99.90;;;;;;6231586;28;20286;-63
2021/07/30 01:49:02;;;;;;;6.70;6.10;;;22.60;99.90;;;;;;6251355;28;20302;-62
2021/07/30 01:52:06;;;;;;;7.70;6.90;;;22.60;99.90;;;;;;6251339;28;20235;-63
2021/07/30 01:55:11;;;;;;;8.33;7.63;;;22.60;99.90;;;;;;6251440;28;20581;-63
2021/07/30 01:58:14;;;;;;;9.27;6.70;;;22.50;99.90;;;;;;6251554;28;20232;-63
2021/07/30 02:01:17;;;;;;;6.40;5.83;;;22.60;99.90;;;;;;6251541;28;20228;-63
2021/07/30 02:04:21;;;;;;;9.00;6.30;;;22.60;99.90;;;;;;6251671;28;20570;-63
2021/07/30 02:07:24;;;;;;;7.27;6.60;;;22.50;99.90;;;;;;6250521;28;20277;-62
2021/07/30 02:10:28;;;;;;;6.70;6.10;;;22.50;99.90;;;;;;6250455;28;20700;-63
2021/07/30 02:16:54;;;;;;;7.33;6.63;;;22.40;99.90;;;;;;6265702;28;20228;-62
2021/07/30 02:19:57;;;;;;;7.13;6.53;;;22.30;99.90;;;;;;6259737;28;20228;-62
2021/07/30 02:23:00;;;;;;;8.53;7.63;;;22.10;99.90;;;;;;6255431;28;20220;-63
2021/07/30 02:26:05;;;;;;;6.43;5.83;;;22.10;99.90;;;;;;6252998;28;20227;-62
2021/07/30 02:29:08;;;;;;;7.63;6.00;;;22.10;99.90;;;;;;6265965;28;20235;-62
2021/07/30 02:32:11;;;;;;;5.87;5.30;;;22.10;99.90;;;;;;6258958;28;20293;-63
2021/07/30 02:35:14;;;;;;;7.13;6.43;;;22.10;99.90;;;;;;6268134;28;20228;-62
2021/07/30 02:38:18;;;;;;;6.93;6.10;;;22.10;99.90;;;;;;6257805;28;20236;-62
2021/07/30 02:41:22;;;;;;;7.50;6.80;;;22.10;99.90;;;;;;6268578;28;20231;-62
2021/07/30 02:44:25;;;;;;;7.27;6.57;;;22.10;99.90;;;;;;6255818;28;20228;-63
2021/07/30 02:47:28;;;;;;;6.63;5.80;;;22.10;99.90;;;;;;6269526;28;20230;-62
2021/07/30 02:50:31;;;;;;;7.60;6.90;;;22.10;99.90;;;;;;6250818;28;20236;-62
2021/07/30 02:53:35;;;;;;;6.63;6.03;;;22.10;99.90;;;;;;6270284;28;20280;-63
2021/07/30 02:56:39;;;;;;;8.57;6.90;;;22.00;99.90;;;;;;6254615;28;20595;-63
2021/07/30 02:59:42;;;;;;;7.80;7.00;;;21.90;99.90;;;;;;6271121;28;20231;-63
2021/07/30 03:02:45;;;;;;;9.80;6.67;;;21.90;99.90;;;;;;6253466;28;20243;-63
2021/07/30 03:05:49;;;;;;;8.83;7.43;;;21.90;99.90;;;;;;6272255;28;20579;-63
2021/07/30 03:08:52;;;;;;;6.50;5.90;;;21.90;99.90;;;;;;6251815;28;20236;-63
2021/07/30 03:11:56;;;;;;;7.10;6.50;;;21.90;99.90;;;;;;6273208;28;20228;-63
2021/07/30 03:14:59;;;;;;;6.87;6.27;;;21.90;99.90;;;;;;6250710;28;20232;-63
2021/07/30 03:18:02;;;;;;;6.67;6.13;;;21.90;99.90;;;;;;6274069;28;20231;-63
2021/07/30 03:21:05;;;;;;;7.20;6.50;;;21.90;99.90;;;;;;6249898;28;20239;-63
2021/07/30 03:24:09;;;;;;;8.67;6.60;;;21.90;99.90;;;;;;6274149;28;20223;-62
2021/07/30 03:27:13;;;;;;;6.57;5.97;;;21.90;99.90;;;;;;6250722;28;20228;-63
2021/07/30 03:30:16;;;;;;;6.40;5.90;;;21.90;99.90;;;;;;6272925;28;20665;-63
2021/07/30 03:33:19;;;;;;;9.30;6.87;;;21.90;99.90;;;;;;6251255;28;20219;-63
2021/07/30 03:36:23;;;;;;;6.87;6.30;;;21.80;99.90;;;;;;6272654;28;20211;-63
2021/07/30 03:39:26;;;;;;;7.67;6.37;;;21.80;99.90;;;;;;6251629;28;20560;-63
2021/07/30 03:42:30;;;;;;;7.40;6.70;;;21.80;99.90;;;;;;6271470;28;20241;-63
2021/07/30 03:45:34;;;;;;;7.73;7.07;;;21.80;99.90;;;;;;6253375;28;20236;-63
2021/07/30 03:48:37;;;;;;;8.13;7.10;;;21.70;99.90;;;;;;6269904;28;20240;-63
2021/07/30 03:51:40;;;;;;;7.50;6.90;;;21.80;99.90;;;;;;6249276;28;20246;-63
2021/07/30 03:54:44;;;;;;;6.77;5.90;;;21.80;99.90;;;;;;6270122;28;20322;-63
2021/07/30 03:57:48;;;;;;;6.07;5.50;;;21.70;99.90;;;;;;6259926;28;20262;-63
2021/07/30 04:00:51;;;;;;;8.83;6.83;;;21.70;99.90;;;;;;6272834;28;20234;-63
2021/07/30 04:03:55;;;;;;;6.73;6.23;;;21.70;99.90;;;;;;6260815;28;20231;-62
2021/07/30 04:06:58;;;;;;;7.50;6.63;;;21.80;99.90;;;;;;6272039;28;20228;-63
2021/07/30 04:10:01;;;;;;;10.03;7.53;;;21.80;99.90;;;;;;6261383;28;20699;-63
2021/07/30 04:13:05;;;;;;;7.80;7.00;;;21.80;99.90;;;;;;6270919;28;20231;-63
2021/07/30 04:16:09;;;;;;;8.00;6.63;;;21.80;99.90;;;;;;6263087;28;20232;-63
2021/07/30 04:19:12;;;;;;;8.07;6.83;;;21.90;99.90;;;;;;6269728;28;20242;-63
2021/07/30 04:22:15;;;;;;;7.90;7.10;;;22.00;99.90;;;;;;6263352;28;20227;-62
2021/07/30 04:25:18;;;;;;;8.07;7.33;;;22.00;99.90;;;;;;6269238;28;20231;-63
2021/07/30 04:28:23;;;;;;;8.10;7.40;;;22.10;99.90;;;;;;6263459;28;20602;-63
2021/07/30 04:31:26;;;;;;;7.80;6.90;;;22.20;99.90;;;;;;6264578;28;20228;-63
2021/07/30 04:34:29;;;;;;;6.70;6.20;;;22.30;99.90;;;;;;6264373;28;20684;-63
2021/07/30 04:37:32;;;;;;;8.40;7.50;;;22.30;99.90;;;;;;6266779;28;20688;-63
2021/07/30 04:40:38;;;;;;;7.23;6.60;;;22.40;99.90;;;;;;6253279;28;20677;-63
2021/07/30 04:43:42;;;;;;;8.93;7.67;;;22.50;99.90;;;;;;6253262;28;20240;-62
2021/07/30 04:46:45;;;;;;;7.80;7.00;;;22.60;99.90;;;;;;6252892;28;20236;-62
2021/07/30 04:49:48;;;;;;;7.60;6.90;;;22.70;99.90;;;;;;6253212;28;20243;-63
2021/07/30 04:52:54;;;;;;;7.80;6.93;;;22.70;99.90;;;;;;6253190;28;20231;-63
2021/07/30 04:55:57;;;;;;;8.03;6.73;;;22.90;99.90;;;;;;6252988;28;20232;-63
2021/07/30 04:59:02;;;;;;;8.30;7.50;;;23.00;99.90;;;;;;6243646;28;20232;-62
2021/07/30 05:02:09;;;;;;;7.57;6.23;;;23.10;99.90;;;;;;6252910;28;20232;-62
2021/07/30 05:05:12;;;;;;;7.53;6.73;;;23.20;99.90;;;;;;6252873;28;20231;-61
2021/07/30 05:08:15;;;;;;;8.03;7.33;;;23.30;99.90;;;;;;6251978;28;20232;-62
2021/07/30 05:11:18;;;;;;;8.40;7.60;;;23.40;99.90;;;;;;6252690;28;20235;-61
2021/07/30 05:14:23;;;;;;;7.87;7.17;;;23.60;99.90;;;;;;6252665;28;20239;-62
2021/07/30 05:17:26;;;;;;;7.03;6.43;;;23.70;99.90;;;;;;6252739;28;20256;-62
2021/07/30 05:20:29;;;;;;;8.57;7.77;;;23.80;99.90;;;;;;6252241;28;20232;-62
2021/07/30 05:23:33;;;;;;;8.63;7.83;;;23.90;99.90;;;;;;6252580;28;20239;-62
2021/07/30 05:26:36;;;;;;;9.67;8.00;;;24.00;99.90;;;;;;6251998;28;20574;-61
2021/07/30 05:29:41;;;;;;;7.97;7.27;;;24.10;99.90;;;;;;6252019;28;20578;-61
2021/07/30 05:32:44;;;;;;;11.37;8.43;;;24.30;99.70;;;;;;6251935;28;20362;-61
2021/07/30 05:35:47;;;;;;;8.93;8.00;;;24.40;99.40;;;;;;6252291;28;20258;-61
2021/07/30 05:38:50;;;;;;;9.03;8.27;;;24.50;99.30;;;;;;6251888;28;20238;-61
2021/07/30 05:41:54;;;;;;;7.20;6.57;;;24.60;99.00;;;;;;6252236;28;20224;-61
2021/07/30 05:44:58;;;;;;;9.47;8.57;;;24.80;98.80;;;;;;6251723;28;20247;-61
2021/07/30 05:48:01;;;;;;;8.97;8.17;;;24.90;98.30;;;;;;6251746;28;20231;-61
2021/07/30 05:51:05;;;;;;;9.60;7.60;;;25.10;98.40;;;;;;6251752;28;20240;-62
2021/07/30 05:54:08;;;;;;;9.30;8.40;;;25.30;97.90;;;;;;6251649;28;20236;-62
2021/07/30 05:57:11;;;;;;;9.20;7.77;;;25.50;97.20;;;;;;6251356;28;20595;-61
2021/07/30 06:00:16;;;;;;;9.17;8.40;;;25.80;96.30;;;;;;6246722;28;20238;-62
2021/07/30 06:03:19;;;;;;;9.40;8.47;;;26.10;95.40;;;;;;6251684;28;20299;-62
2021/07/30 06:06:23;;;;;;;9.00;7.73;;;26.40;94.80;;;;;;6251346;28;20212;-60
2021/07/30 06:09:26;;;;;;;8.97;8.20;;;26.80;93.70;;;;;;6251464;28;20227;-60
2021/07/30 06:12:29;;;;;;;7.13;6.53;;;27.10;92.90;;;;;;6251452;28;20273;-61
2021/07/30 06:15:35;;;;;;;7.97;7.27;;;27.70;91.90;;;;;;6251647;28;20239;-61
2021/07/30 06:18:38;;;;;;;7.47;6.70;;;28.30;90.40;;;;;;6250226;28;20235;-61
2021/07/30 06:21:42;;;;;;;8.67;7.93;;;28.60;88.70;;;;;;6251201;28;20254;-61
2021/07/30 06:24:45;;;;;;;8.60;7.90;;;28.80;86.80;;;;;;6250905;28;20238;-61
2021/07/30 06:27:48;;;;;;;12.50;7.47;;;29.00;85.80;;;;;;6250885;28;20566;-61
2021/07/30 06:30:52;;;;;;;8.63;7.83;;;29.40;84.00;;;;;;6251194;28;20247;-62
2021/07/30 06:33:56;;;;;;;8.90;7.03;;;29.80;82.30;;;;;;6250675;28;20242;-62
2021/07/30 06:36:59;;;;;;;9.23;8.43;;;30.50;78.80;;;;;;6250887;28;20224;-62
2021/07/30 06:40:03;;;;;;;8.33;7.63;;;31.30;75.40;;;;;;6250403;28;20501;-62
2021/07/30 06:43:06;;;;;;;10.13;7.30;;;31.40;73.60;;;;;;6250539;28;20234;-62
2021/07/30 06:46:11;;;;;;;7.55;6.82;;;31.70;72.20;;;;;;6250161;28;20693;-64
2021/07/30 06:49:14;;;;;;;7.78;7.13;;;32.20;70.50;;;;;;6250369;28;20365;-62
2021/07/30 06:52:18;;;;;;;8.88;7.20;;;32.70;68.00;;;;;;6250120;28;20239;-63
2021/07/30 06:55:21;;;;;;;7.47;6.60;;;33.50;64.90;;;;;;6250509;28;20231;-62
2021/07/30 06:58:24;;;;;;;9.23;7.13;;;34.30;60.80;;;;;;6249855;28;20704;-62
2021/07/30 07:01:29;;;;;;;7.53;6.95;;;35.00;58.00;;;;;;6249924;28;20231;-61
2021/07/30 07:04:33;;;;;;;7.93;7.30;;;35.70;55.70;;;;;;6261377;28;20226;-62
2021/07/30 07:07:37;;;;;;;7.45;6.70;;;36.40;53.80;;;;;;6258761;28;20224;-61
2021/07/30 07:10:40;;;;;;;7.30;6.45;;;36.90;52.00;;;;;;6261612;28;20230;-61
2021/07/30 07:13:43;;;;;;;6.68;6.07;;;37.30;50.50;;;;;;6261897;28;20242;-62
2021/07/30 07:16:48;;;;;;;6.57;6.07;;;37.90;48.70;;;;;;6249678;28;20567;-61
2021/07/30 07:19:51;;;;;;;7.57;6.90;;;38.80;46.80;;;;;;6249725;28;20223;-61
2021/07/30 07:22:55;;;;;;;6.75;6.15;;;39.30;44.70;;;;;;6249853;28;20227;-62
2021/07/30 07:26:00;;;;;;;6.88;6.38;;;39.50;43.90;;;;;;6249787;28;20231;-62
2021/07/30 07:29:03;;;;;;;6.68;6.18;;;39.90;42.80;;;;;;6249506;28;20232;-62
2021/07/30 07:32:08;;;;;;;7.93;6.28;;;40.60;41.50;;;;;;6249539;28;20314;-62
2021/07/30 07:35:11;;;;;;;6.75;6.15;;;41.50;39.60;;;;;;6266822;28;20258;-62
2021/07/30 07:38:15;;;;;;;6.93;6.43;;;42.30;38.60;;;;;;6256986;28;20254;-62
2021/07/30 07:41:18;;;;;;;6.57;6.05;;;42.60;37.80;;;;;;6267386;28;20241;-62
2021/07/30 07:44:21;;;;;;;7.35;6.63;;;42.00;38.10;;;;;;6255891;28;20673;-62
2021/07/30 07:47:26;;;;;;;8.52;7.28;;;42.60;37.00;;;;;;6267937;28;20245;-62
2021/07/30 07:50:29;;;;;;;6.50;6.00;;;42.50;36.70;;;;;;6253928;28;20767;-62
2021/07/30 07:53:33;;;;;;;7.47;6.88;;;43.30;35.80;;;;;;6258025;28;20235;-62
2021/07/30 07:56:37;;;;;;;6.95;6.45;;;44.20;34.90;;;;;;6263260;28;20254;-62
2021/07/30 07:59:41;;;;;;;7.53;6.72;;;44.80;34.10;;;;;;6245216;28;20224;-63
2021/07/30 08:02:46;;;;;;;6.72;6.22;;;45.70;33.00;;;;;;6247857;28;20234;-62
2021/07/30 08:05:49;;;;;;;7.50;6.88;;;46.20;32.10;;;;;;6269301;28;20244;-62
2021/07/30 08:08:52;;;;;;;6.70;6.30;;;46.40;31.60;;;;;;6251336;28;20692;-63
2021/07/30 08:11:56;;;;;;;6.70;6.03;;;46.30;31.50;;;;;;6238853;28;20326;-60
2021/07/30 08:14:59;;;;;;;7.82;7.20;;;46.60;31.40;;;;;;6224291;28;20248;-61
2021/07/30 08:18:04;;;;;;;7.07;6.43;;;46.80;31.00;;;;;;6223827;28;20262;-63
2021/07/30 08:21:07;;;;;;;7.88;7.28;;;46.90;30.80;;;;;;6224355;28;20236;-63
2021/07/30 08:24:13;;;;;;;8.77;7.85;;;46.60;31.10;;;;;;6223923;28;20306;-65
2021/07/30 08:27:16;;;;;;;7.60;7.00;;;46.80;30.40;;;;;;6224565;28;20200;-64
2021/07/30 08:30:20;;;;;;;8.60;7.13;;;46.70;30.80;;;;;;6224086;28;20240;-63
2021/07/30 08:33:24;;;;;;;7.22;6.63;;;46.30;31.20;;;;;;6224367;28;20205;-63
2021/07/30 08:36:27;;;;;;;8.13;7.32;;;45.10;31.90;;;;;;6224525;28;20215;-64
2021/07/30 08:39:31;;;;;;;7.68;7.10;;;44.00;33.40;;;;;;6223977;28;20253;-64
2021/07/30 08:42:37;;;;;;;8.00;7.40;;;43.10;34.20;;;;;;6226033;28;20228;-64
2021/07/30 08:45:41;;;;;;;7.78;6.90;;;41.70;35.80;;;;;;6228243;28;20232;-63
2021/07/30 08:48:46;;;;;;;8.93;8.15;;;40.60;37.50;;;;;;6238866;28;20223;-62
2021/07/30 08:51:51;;;;;;;8.45;7.65;;;39.60;38.80;;;;;;6254611;28;20680;-61
2021/07/30 08:54:55;;;;;;;8.60;7.70;;;38.80;40.80;;;;;;6247989;28;20583;-64
2021/07/30 08:57:58;;;;;;;8.60;7.90;;;38.30;42.30;;;;;;6252860;28;20285;-60
2021/07/30 09:01:01;;;;;;;8.40;7.70;;;38.00;43.00;;;;;;6252763;28;20227;-64
2021/07/30 09:04:06;;;;;;;8.85;8.18;;;37.40;44.20;;;;;;6243661;28;20270;-62
2021/07/30 09:07:09;;;;;;;8.40;7.55;;;36.80;45.00;;;;;;6228074;28;20231;-64
2021/07/30 09:10:12;;;;;;;9.57;8.68;;;35.90;46.70;;;;;;6227603;28;20708;-64
2021/07/30 09:13:21;;;;;;;8.25;7.53;;;35.60;47.50;;;;;;6223927;28;20228;-61
2021/07/30 09:16:24;;;;;;;8.88;8.07;;;35.20;47.80;;;;;;6227732;28;20228;-61
2021/07/30 09:19:29;;;;;;;8.85;8.15;;;34.80;48.70;;;;;;6227702;28;20671;-62
2021/07/30 09:22:49;;;;;;;8.95;8.15;;;34.70;49.10;;;;;;6227930;28;20236;-61
2021/07/30 09:25:52;;;;;;;9.75;8.77;;;34.40;50.20;;;;;;6247145;28;20246;-60
2021/07/30 09:28:56;;;;;;;9.57;8.75;;;34.10;50.60;;;;;;6266335;28;20264;-60
2021/07/30 09:32:00;;;;;;;8.40;7.80;;;34.10;50.50;;;;;;6262029;28;20684;-62
2021/07/30 09:35:07;;;;;;;8.90;7.75;;;34.10;50.50;;;;;;6267380;28;20227;-60
2021/07/30 09:38:18;;;;;;;8.32;7.60;;;34.00;50.30;;;;;;6258729;28;20235;-60
2021/07/30 09:41:23;;;;;;;8.60;7.82;;;34.00;50.70;;;;;;6251808;28;20314;-61
2021/07/30 09:44:27;;;;;;;9.00;8.30;;;33.70;51.00;;;;;;6251588;28;20227;-61
2021/07/30 09:47:33;;;;;;;8.88;8.07;;;33.80;51.20;;;;;;6267795;28;20223;-60
2021/07/30 09:50:38;;;;;;;9.02;7.90;;;33.90;51.00;;;;;;6276034;28;20314;-61
2021/07/30 09:53:42;;;;;;;8.80;8.10;;;34.10;50.50;;;;;;6255628;28;20257;-63
2021/07/30 09:56:45;;;;;;;17.20;8.10;;;34.20;50.70;;;;;;6241820;28;20227;-61
2021/07/30 09:59:49;;;;;;;9.13;8.32;;;34.00;50.20;;;;;;6251424;28;20228;-62
2021/07/30 10:02:53;;;;;;;8.38;7.70;;;33.80;49.80;;;;;;6251073;28;20413;-63
2021/07/30 10:05:58;;;;;;;10.65;8.10;;;33.60;50.50;;;;;;6251352;28;20227;-62
2021/07/30 10:09:01;;;;;;;8.75;8.05;;;33.50;51.00;;;;;;6250760;28;20575;-62
2021/07/30 10:12:06;;;;;;;9.00;8.13;;;33.60;51.40;;;;;;6251368;28;20648;-61
2021/07/30 10:15:10;;;;;;;9.82;8.90;;;33.70;51.40;;;;;;6250538;28;20276;-62
2021/07/30 10:18:18;;;;;;;9.98;9.10;;;33.70;50.60;;;;;;6249997;28;20565;-62
2021/07/30 10:21:24;;;;;;;9.48;8.68;;;33.50;51.10;;;;;;6275493;28;20194;-61
2021/07/30 10:24:30;;;;;;;7.68;6.97;;;33.60;51.00;;;;;;6275553;28;20633;-61
2021/07/30 10:27:39;;;;;;;8.70;7.82;;;33.70;50.10;;;;;;6275414;28;20649;-62
2021/07/30 10:30:52;;;;;;;8.23;7.63;;;33.70;50.50;;;;;;6275486;28;20564;-62
2021/07/30 10:33:56;;;;;;;8.48;7.75;;;33.80;51.60;;;;;;6267486;28;20335;-63
2021/07/30 10:37:00;;;;;;;8.90;8.15;;;33.80;50.90;;;;;;6250868;28;20311;-63
2021/07/30 10:40:20;;;;;;;7.95;7.35;;;33.60;49.80;;;;;;6250570;28;20227;-61
2021/07/30 10:43:27;;;;;;;7.05;6.45;;;33.60;48.20;;;;;;6253083;28;20223;-61
2021/07/30 10:46:31;;;;;;;8.45;7.68;;;33.50;47.70;;;;;;6256372;28;20564;-62
2021/07/30 10:49:41;;;;;;;8.73;6.70;;;33.40;47.30;;;;;;6261745;28;20230;-60
2021/07/30 10:52:46;;;;;;;8.05;7.28;;;33.50;48.00;;;;;;6269223;28;20231;-61
2021/07/30 10:55:49;;;;;;;8.10;7.32;;;33.50;48.20;;;;;;6274937;28;20560;-63
2021/07/30 10:59:05;;;;;;;7.90;7.22;;;33.60;48.10;;;;;;6274438;28;20242;-61
2021/07/30 11:02:08;;;;;;;7.70;6.97;;;33.50;47.10;;;;;;6273631;28;20237;-59
2021/07/30 11:05:12;;;;;;;7.63;7.00;;;33.50;44.90;;;;;;6272839;28;20237;-59
2021/07/30 11:08:17;;;;;;;7.72;7.13;;;33.70;45.20;;;;;;6274509;28;20227;-59
2021/07/30 11:11:38;;;;;;;9.20;6.75;;;33.80;46.00;;;;;;6272284;28;20222;-61
2021/07/30 11:14:45;;;;;;;7.85;7.22;;;34.00;46.20;;;;;;6258544;28;20228;-64
2021/07/30 11:17:50;;;;;;;7.85;7.10;;;34.10;46.40;;;;;;6273329;28;20235;-63
2021/07/30 11:20:58;;;;;;;7.63;6.93;;;34.20;46.70;;;;;;6274421;28;20233;-59
2021/07/30 11:24:04;;;;;;;8.55;6.75;;;34.30;46.30;;;;;;6264872;28;20306;-63
2021/07/30 11:27:08;;;;;;;7.10;6.50;;;34.30;45.00;;;;;;6273917;28;20218;-64
2021/07/30 11:30:12;;;;;;;7.53;6.93;;;34.20;43.90;;;;;;6272585;28;20732;-64
2021/07/30 11:33:16;;;;;;;7.55;6.93;;;34.20;44.20;;;;;;6239077;28;20220;-64
2021/07/30 11:36:19;;;;;;;7.07;6.43;;;34.10;44.80;;;;;;6254278;28;20624;-65
2021/07/30 11:39:32;;;;;;;7.68;7.03;;;33.70;44.30;;;;;;6232987;28;20219;-66
2021/07/30 11:42:38;;;;;;;6.88;6.38;;;33.80;43.80;;;;;;6248099;28;20660;-65
2021/07/30 11:45:41;;;;;;;6.75;6.22;;;34.00;42.70;;;;;;6249070;28;20230;-65
2021/07/30 11:48:46;;;;;;;7.60;6.90;;;33.90;43.50;;;;;;6249043;28;20247;-65
2021/07/30 11:51:49;;;;;;;7.72;7.03;;;34.00;44.10;;;;;;6249027;28;20247;-65
2021/07/30 11:54:54;;;;;;;7.90;7.10;;;34.40;43.00;;;;;;6249111;28;20656;-65
2021/07/30 11:57:57;;;;;;;8.30;7.68;;;34.50;43.20;;;;;;6248579;28;20250;-63
2021/07/30 12:01:10;;;;;;;9.50;8.70;;;34.40;44.10;;;;;;6249223;28;20235;-65
2021/07/30 12:04:15;;;;;;;6.57;5.97;;;34.60;44.30;;;;;;6256674;28;20345;-66
2021/07/30 12:07:21;;;;;;;8.60;7.07;;;34.50;43.40;;;;;;6255010;28;20222;-58
2021/07/30 12:10:26;;;;;;;8.80;7.88;;;34.50;42.90;;;;;;6272120;28;20223;-59
2021/07/30 12:13:30;;;;;;;7.63;7.07;;;34.30;42.90;;;;;;6264586;28;20225;-59
2021/07/30 12:16:35;;;;;;;7.95;7.25;;;33.80;45.00;;;;;;6257315;28;20231;-60
2021/07/30 12:19:38;;;;;;;7.30;6.60;;;33.80;45.30;;;;;;6259613;28;20313;-59
2021/07/30 12:22:44;;;;;;;7.78;7.07;;;34.00;44.10;;;;;;6266148;28;20235;-59
2021/07/30 12:25:49;;;;;;;11.20;8.00;;;34.20;45.00;;;;;;6262171;28;20230;-59
2021/07/30 12:28:53;;;;;;;9.20;8.27;;;34.10;44.90;;;;;;6263991;28;20297;-58
2021/07/30 12:32:11;;;;;;;8.18;7.57;;;34.10;45.50;;;;;;6253462;28;20336;-59
2021/07/30 12:35:16;;;;;;;8.63;7.93;;;34.00;45.50;;;;;;6253066;28;20693;-60
2021/07/30 12:38:20;;;;;;;8.40;7.55;;;33.70;46.50;;;;;;6251184;28;20227;-59
2021/07/30 12:41:26;;;;;;;8.15;7.55;;;33.90;46.50;;;;;;6228390;28;20228;-59
2021/07/30 12:44:29;;;;;;;8.07;7.45;;;34.10;45.80;;;;;;6228409;28;20678;-59
2021/07/30 12:47:34;;;;;;;8.13;7.43;;;34.20;46.20;;;;;;6228301;28;20227;-59
2021/07/30 12:50:40;;;;;;;8.05;7.45;;;34.00;45.50;;;;;;6269250;28;20573;-59
2021/07/30 12:53:59;;;;;;;10.20;9.20;;;33.90;46.20;;;;;;6277462;28;20249;-59
2021/07/30 12:57:04;;;;;;;8.05;7.38;;;33.80;46.20;;;;;;6253499;28;20235;-59
2021/07/30 13:00:09;;;;;;;8.52;7.82;;;33.70;46.40;;;;;;6252111;28;20228;-60
2021/07/30 13:03:12;;;;;;;8.93;8.20;;;33.60;46.40;;;;;;6252160;28;20227;-59
2021/07/30 13:06:18;;;;;;;9.13;8.32;;;33.50;46.50;;;;;;6277254;28;20223;-60
2021/07/30 13:09:21;;;;;;;8.88;7.93;;;33.50;46.80;;;;;;6277366;28;20238;-64
2021/07/30 13:12:27;;;;;;;9.05;8.27;;;33.80;47.10;;;;;;6275346;28;20230;-64
2021/07/30 13:15:30;;;;;;;8.45;7.75;;;33.80;46.60;;;;;;6276366;28;20214;-64
2021/07/30 13:18:33;;;;;;;9.55;8.75;;;33.50;47.30;;;;;;6273788;28;20688;-64
2021/07/30 13:21:36;;;;;;;7.95;7.28;;;33.20;47.10;;;;;;6274940;28;20223;-63
2021/07/30 13:24:40;;;;;;;8.10;7.50;;;33.30;47.20;;;;;;6274352;28;20227;-63
2021/07/30 13:27:44;;;;;;;8.38;7.70;;;33.60;46.80;;;;;;6272395;28;20222;-62
2021/07/30 13:30:48;;;;;;;8.43;7.72;;;34.00;46.40;;;;;;6276382;28;20254;-59
2021/07/30 13:33:51;;;;;;;8.70;8.00;;;34.30;45.60;;;;;;6276516;28;20231;-58
2021/07/30 13:36:54;;;;;;;9.55;8.63;;;34.40;45.00;;;;;;6274551;28;20234;-62
2021/07/30 13:39:57;;;;;;;8.77;8.00;;;34.30;44.90;;;;;;6276196;28;20230;-62
2021/07/30 13:43:06;;;;;;;11.80;10.88;;;34.20;45.50;;;;;;6274253;28;20230;-62
2021/07/30 13:46:09;;;;;;;8.52;7.82;;;34.50;46.10;;;;;;6276077;28;20706;-64
2021/07/30 13:49:12;;;;;;;9.25;8.45;;;34.50;46.00;;;;;;6276239;28;20230;-63
2021/07/30 13:52:16;;;;;;;8.48;7.85;;;34.20;45.90;;;;;;6260233;28;20235;-62
2021/07/30 13:55:19;;;;;;;8.68;7.97;;;33.60;46.80;;;;;;6251304;28;20247;-63
2021/07/30 13:58:23;;;;;;;8.35;7.75;;;33.50;47.40;;;;;;6251123;28;20243;-63
2021/07/30 14:01:26;;;;;;;8.88;8.05;;;33.70;46.90;;;;;;6272386;28;20230;-62
2021/07/30 14:04:34;;;;;;;8.15;7.45;;;33.70;46.40;;;;;;6275841;28;20300;-62
2021/07/30 14:07:40;;;;;;;9.20;8.35;;;33.80;46.50;;;;;;6275831;28;20313;-63
2021/07/30 14:10:44;;;;;;;8.90;8.05;;;33.80;46.20;;;;;;6274257;28;20269;-63
2021/07/30 14:13:49;;;;;;;9.07;8.27;;;33.60;46.30;;;;;;6273278;28;20239;-63
2021/07/30 14:16:54;;;;;;;10.23;8.80;;;33.40;46.30;;;;;;6273538;28;20227;-62
2021/07/30 14:19:57;;;;;;;9.60;8.90;;;33.20;46.90;;;;;;6273111;28;20239;-62
2021/07/30 14:23:01;;;;;;;9.50;8.70;;;33.00;47.50;;;;;;6273619;28;20238;-65
2021/07/30 14:26:04;;;;;;;9.57;8.77;;;33.00;48.00;;;;;;6265991;28;20668;-60
2021/07/30 14:29:10;;;;;;;10.75;8.20;;;33.00;48.20;;;;;;6253314;28;20236;-65
2021/07/30 14:32:14;;;;;;;9.07;8.27;;;33.10;48.10;;;;;;6250414;28;20242;-64
2021/07/30 14:35:17;;;;;;;11.30;10.20;;;33.40;47.60;;;;;;6255901;28;20660;-59
2021/07/30 14:38:20;;;;;;;9.68;8.88;;;33.30;47.70;;;;;;6274896;28;20237;-58
2021/07/30 14:41:24;;;;;;;8.90;8.10;;;33.10;47.40;;;;;;6274203;28;20234;-59
2021/07/30 14:44:28;;;;;;;9.23;8.50;;;33.20;47.50;;;;;;6251397;28;20223;-58
2021/07/30 14:47:32;;;;;;;9.13;8.30;;;33.30;47.00;;;;;;6248306;28;20571;-58
2021/07/30 14:50:36;;;;;;;8.90;8.00;;;33.50;46.70;;;;;;6247971;28;20312;-59
2021/07/30 14:53:39;;;;;;;8.45;7.70;;;33.60;46.20;;;;;;6248096;28;20262;-59
2021/07/30 14:56:43;;;;;;;9.75;8.90;;;33.80;46.60;;;;;;6248029;28;20227;-59
2021/07/30 14:59:47;;;;;;;10.77;9.88;;;33.80;47.10;;;;;;6247666;28;20239;-59
2021/07/30 15:02:50;;;;;;;10.25;9.43;;;33.60;47.50;;;;;;6247919;28;20258;-60
2021/07/30 15:05:53;;;;;;;10.50;9.70;;;33.50;48.20;;;;;;6247331;28;20235;-59
2021/07/30 15:08:58;;;;;;;9.60;8.90;;;33.60;47.80;;;;;;6247720;28;20546;-60
2021/07/30 15:12:01;;;;;;;10.02;9.20;;;33.70;48.00;;;;;;6270546;28;20841;-59
2021/07/30 15:15:07;;;;;;;10.55;9.25;;;33.40;49.00;;;;;;6258611;28;20231;-59
2021/07/30 15:18:10;;;;;;;12.60;9.88;;;33.20;49.60;;;;;;6273207;28;20597;-59
2021/07/30 15:21:15;;;;;;;10.13;9.23;;;33.10;50.10;;;;;;6274347;28;20309;-60
2021/07/30 15:24:19;;;;;;;10.55;9.63;;;32.90;50.30;;;;;;6274406;28;20241;-60
2021/07/30 15:27:22;;;;;;;11.10;9.93;;;32.80;51.00;;;;;;6258700;28;20547;-61
2021/07/30 15:30:26;;;;;;;11.90;9.85;;;32.50;51.70;;;;;;6249214;28;20224;-60
2021/07/30 15:33:30;;;;;;;11.73;10.63;;;32.40;52.30;;;;;;6249034;28;20223;-59
2021/07/30 15:36:35;;;;;;;9.75;8.73;;;32.50;53.10;;;;;;6259033;28;20214;-66
2021/07/30 15:39:38;;;;;;;10.73;9.63;;;31.80;54.60;;;;;;6273488;28;20242;-64
2021/07/30 15:42:41;;;;;;;10.35;9.35;;;31.10;56.80;;;;;;6273162;28;20683;-65
2021/07/30 15:45:46;;;;;;;10.87;9.17;;;30.40;59.80;;;;;;6273457;28;20675;-59
2021/07/30 15:48:49;;;;;;;6.90;6.30;;;29.40;61.30;;;;;;6274193;28;20233;-61
2021/07/30 15:51:53;;;;;;;10.10;8.50;;;28.40;61.50;;;;;;6273099;28;20554;-64
2021/07/30 15:54:56;;;;;;;14.20;10.90;;;27.10;73.30;;;;;;6273891;28;20687;-60
2021/07/30 15:57:59;;;;;;;13.67;12.40;;;25.90;86.60;;;;;;6273562;28;20273;-62
2021/07/30 16:01:04;;;;;;;11.70;9.70;;;24.80;96.10;;;;;;6273773;28;20230;-59